Time;durP1;ratioP1;P1;durP2;ratioP2;P2;SDS_P1;SDS_P2;PMS_P1;PMS_P2;Temp;Humidity;BMP_temperature;BMP_pressure;BME280_temperature;BME280_humidity;BME280_pressure;Samples;Min_cycle;Max_cycle;Signal;HPM_P1;HPM_P2
2021/07/02 00:00:26;;;;;;;1.02;1.02;;;14.40;99.90;;;;;;5018606;28;20053;-81
2021/07/02 00:02:53;;;;;;;1.20;1.10;;;14.40;99.90;;;;;;5018629;28;20142;-81
2021/07/02 00:05:19;;;;;;;1.85;1.20;;;14.40;99.90;;;;;;5020720;28;20137;-81
2021/07/02 00:07:46;;;;;;;0.82;0.82;;;14.30;99.90;;;;;;5018916;28;20065;-81
2021/07/02 00:10:13;;;;;;;1.15;1.15;;;14.40;99.90;;;;;;5035680;28;20414;-81
2021/07/02 00:12:40;;;;;;;1.05;1.05;;;14.40;99.90;;;;;;5018248;28;20558;-81
2021/07/02 00:15:08;;;;;;;1.30;1.00;;;14.40;99.90;;;;;;5018834;28;20575;-81
2021/07/02 00:17:35;;;;;;;1.25;1.10;;;14.40;99.90;;;;;;5037476;28;20084;-81
2021/07/02 00:20:03;;;;;;;1.17;1.15;;;14.30;99.90;;;;;;5018958;28;20053;-81
2021/07/02 00:22:32;;;;;;;2.08;1.30;;;14.30;99.90;;;;;;5019797;28;20140;-81
2021/07/02 00:25:02;;;;;;;0.90;0.90;;;14.30;99.90;;;;;;5036609;28;20147;-82
2021/07/02 00:27:28;;;;;;;1.00;1.00;;;14.30;99.90;;;;;;5035133;28;20111;-82
2021/07/02 00:29:55;;;;;;;1.15;1.15;;;14.30;99.90;;;;;;5017770;28;20147;-82
2021/07/02 00:32:22;;;;;;;0.98;0.98;;;14.30;99.90;;;;;;5017858;28;20084;-81
2021/07/02 00:34:49;;;;;;;0.85;0.85;;;14.30;99.90;;;;;;5017708;28;20088;-81
2021/07/02 00:37:16;;;;;;;1.02;1.02;;;14.40;99.90;;;;;;5018150;28;20128;-82
2021/07/02 00:39:43;;;;;;;1.20;1.20;;;14.40;99.90;;;;;;5017690;28;20077;-82
2021/07/02 00:42:10;;;;;;;0.82;0.82;;;14.40;99.90;;;;;;5017802;28;20080;-82
2021/07/02 00:44:38;;;;;;;1.27;1.00;;;14.40;99.90;;;;;;5017929;28;20069;-81
2021/07/02 00:47:05;;;;;;;2.53;1.00;;;14.40;99.90;;;;;;5018728;28;20407;-82
2021/07/02 00:49:36;;;;;;;1.00;1.00;;;14.40;99.90;;;;;;5018912;28;20053;-82
2021/07/02 00:52:05;;;;;;;1.00;1.00;;;14.40;99.90;;;;;;5036114;28;20046;-81
2021/07/02 00:54:37;;;;;;;1.00;1.00;;;14.40;99.90;;;;;;5019521;28;20057;-81
2021/07/02 00:57:06;;;;;;;1.20;1.10;;;14.40;99.90;;;;;;5022278;28;20483;-81
2021/07/02 00:59:33;;;;;;;1.40;1.40;;;14.40;99.90;;;;;;5040668;28;20084;-81
2021/07/02 01:02:02;;;;;;;2.47;1.23;;;14.30;99.90;;;;;;5023199;28;20063;-82
2021/07/02 01:04:29;;;;;;;1.05;1.05;;;14.30;99.90;;;;;;5040597;28;20076;-82
2021/07/02 01:06:59;;;;;;;2.50;1.20;;;14.20;99.90;;;;;;5023647;28;20053;-82
2021/07/02 01:09:26;;;;;;;1.95;1.05;;;14.20;99.90;;;;;;5023925;28;20060;-82
2021/07/02 01:11:53;;;;;;;1.38;1.27;;;14.20;99.90;;;;;;5040595;28;20128;-82
2021/07/02 01:14:20;;;;;;;1.52;1.52;;;14.20;99.90;;;;;;5023150;28;20132;-81
2021/07/02 01:16:47;;;;;;;1.30;1.30;;;14.10;99.90;;;;;;5023383;28;20132;-81
2021/07/02 01:19:15;;;;;;;1.30;1.20;;;14.10;99.90;;;;;;5027744;28;20042;-82
2021/07/02 01:21:42;;;;;;;1.58;1.45;;;14.10;99.90;;;;;;5043773;28;20100;-81
2021/07/02 01:24:09;;;;;;;1.25;1.15;;;14.10;99.90;;;;;;5021981;28;20136;-80
2021/07/02 01:26:36;;;;;;;2.55;1.40;;;14.10;99.90;;;;;;5019714;28;20484;-81
2021/07/02 01:29:03;;;;;;;1.20;1.20;;;14.10;99.90;;;;;;5037496;28;20096;-81
2021/07/02 01:31:30;;;;;;;0.95;0.95;;;14.10;99.90;;;;;;5019128;28;20128;-80
2021/07/02 01:33:57;;;;;;;2.25;1.50;;;14.10;99.90;;;;;;5019570;28;20050;-81
2021/07/02 01:36:26;;;;;;;3.22;1.17;;;14.20;99.90;;;;;;5037767;28;20073;-80
2021/07/02 01:38:53;;;;;;;1.13;1.13;;;14.20;99.90;;;;;;5020047;28;20083;-81
2021/07/02 01:41:19;;;;;;;1.55;1.30;;;14.20;99.90;;;;;;5019974;28;20075;-81
2021/07/02 01:43:46;;;;;;;2.78;1.27;;;14.20;99.90;;;;;;5019456;28;20064;-81
2021/07/02 01:46:14;;;;;;;1.10;1.10;;;14.20;99.90;;;;;;5036706;28;20057;-81
2021/07/02 01:48:41;;;;;;;1.65;1.13;;;14.10;99.90;;;;;;5018948;28;20053;-79
2021/07/02 01:51:07;;;;;;;1.25;1.20;;;14.10;99.90;;;;;;5019154;28;20084;-81
2021/07/02 01:53:34;;;;;;;3.15;1.63;;;14.10;99.90;;;;;;5018943;28;20545;-81
2021/07/02 01:56:02;;;;;;;1.60;1.50;;;14.20;99.90;;;;;;5019180;28;20041;-81
2021/07/02 01:58:28;;;;;;;2.90;1.65;;;14.20;99.90;;;;;;5019053;28;20141;-81
2021/07/02 02:00:55;;;;;;;2.20;1.52;;;14.30;99.90;;;;;;5019221;28;20148;-82
2021/07/02 02:03:22;;;;;;;2.58;1.58;;;14.20;99.90;;;;;;5019322;28;20056;-82
2021/07/02 02:05:50;;;;;;;1.38;1.38;;;14.30;99.90;;;;;;5036414;28;20049;-81
2021/07/02 02:08:16;;;;;;;1.38;1.27;;;14.30;99.90;;;;;;5019495;28;20108;-81
2021/07/02 02:10:43;;;;;;;2.25;1.42;;;14.30;99.90;;;;;;5019112;28;20109;-82
2021/07/02 02:13:10;;;;;;;2.05;1.20;;;14.40;99.90;;;;;;5020192;28;20140;-81
2021/07/02 02:15:37;;;;;;;1.58;1.48;;;14.30;99.90;;;;;;5020660;28;20046;-81
2021/07/02 02:18:04;;;;;;;1.02;1.02;;;14.30;99.90;;;;;;5020870;28;20547;-81
2021/07/02 02:20:33;;;;;;;5.15;1.27;;;14.30;99.90;;;;;;5038721;28;20046;-81
2021/07/02 02:23:00;;;;;;;2.25;1.27;;;14.30;99.90;;;;;;5021642;28;20126;-81
2021/07/02 02:25:27;;;;;;;2.10;1.30;;;14.30;99.90;;;;;;5020636;28;20099;-82
2021/07/02 02:27:53;;;;;;;2.22;1.35;;;14.40;99.90;;;;;;5022033;28;20057;-82
2021/07/02 02:30:20;;;;;;;0.85;0.85;;;14.30;99.90;;;;;;5021648;28;20081;-82
2021/07/02 02:32:47;;;;;;;2.45;1.40;;;14.30;99.90;;;;;;5021554;28;20646;-81
2021/07/02 02:35:14;;;;;;;3.30;1.27;;;14.30;99.90;;;;;;5018787;28;20144;-81
2021/07/02 02:37:41;;;;;;;2.22;1.17;;;14.30;99.90;;;;;;5018860;28;20080;-81
2021/07/02 02:40:09;;;;;;;1.20;1.20;;;14.30;99.90;;;;;;5019159;28;20049;-80
2021/07/02 02:42:36;;;;;;;1.00;1.00;;;14.30;99.90;;;;;;5018502;28;20052;-80
2021/07/02 02:45:04;;;;;;;3.67;1.48;;;14.30;99.90;;;;;;5018893;28;20144;-80
2021/07/02 02:47:32;;;;;;;1.00;1.00;;;14.30;99.90;;;;;;5019077;28;20472;-81
2021/07/02 02:49:59;;;;;;;6.07;1.27;;;14.20;99.90;;;;;;5019029;28;20049;-81
2021/07/02 02:52:26;;;;;;;1.30;1.20;;;14.20;99.90;;;;;;5036494;28;20049;-81
2021/07/02 02:54:52;;;;;;;1.52;1.42;;;14.10;99.90;;;;;;5036702;28;20084;-81
2021/07/02 02:57:19;;;;;;;2.13;1.58;;;14.10;99.90;;;;;;5017913;28;20046;-80
2021/07/02 02:59:46;;;;;;;1.25;1.20;;;14.10;99.90;;;;;;5018737;28;20486;-80
2021/07/02 03:02:13;;;;;;;2.45;1.17;;;14.00;99.90;;;;;;5036413;28;20132;-80
2021/07/02 03:04:40;;;;;;;2.15;1.30;;;14.00;99.90;;;;;;5018455;28;20550;-80
2021/07/02 03:07:07;;;;;;;1.38;1.35;;;14.00;99.90;;;;;;5018599;28;20053;-80
2021/07/02 03:09:34;;;;;;;1.35;1.25;;;13.90;99.90;;;;;;5018072;28;20530;-81
2021/07/02 03:12:01;;;;;;;2.28;1.23;;;13.90;99.90;;;;;;5018804;28;20081;-81
2021/07/02 03:14:28;;;;;;;1.50;1.40;;;14.00;99.90;;;;;;5018995;28;20080;-81
2021/07/02 03:16:55;;;;;;;3.22;1.27;;;13.90;99.90;;;;;;5018550;28;20129;-80
2021/07/02 03:19:22;;;;;;;1.63;1.52;;;14.00;99.90;;;;;;5019246;28;20136;-81
2021/07/02 03:21:49;;;;;;;3.15;2.10;;;14.00;99.90;;;;;;5018726;28;20103;-81
2021/07/02 03:24:16;;;;;;;2.17;2.08;;;14.00;99.90;;;;;;5019984;28;20060;-81
2021/07/02 03:26:42;;;;;;;2.78;2.45;;;14.00;99.90;;;;;;5019137;28;20053;-80
2021/07/02 03:29:09;;;;;;;2.40;2.30;;;14.10;99.90;;;;;;5019979;28;20076;-82
2021/07/02 03:31:36;;;;;;;4.20;2.55;;;14.00;99.90;;;;;;5019719;28;20045;-80
2021/07/02 03:34:03;;;;;;;3.08;2.75;;;14.00;99.90;;;;;;5020787;28;20136;-80
2021/07/02 03:36:31;;;;;;;5.82;2.92;;;14.00;99.90;;;;;;5037847;28;20087;-80
2021/07/02 03:38:58;;;;;;;5.85;2.88;;;14.10;99.90;;;;;;5038677;28;20117;-80
2021/07/02 03:41:25;;;;;;;2.95;2.70;;;14.10;99.90;;;;;;5021140;28;20091;-81
2021/07/02 03:43:52;;;;;;;3.20;2.50;;;14.00;99.90;;;;;;5021400;28;20077;-81
2021/07/02 03:46:18;;;;;;;2.05;1.90;;;14.00;99.90;;;;;;5039301;28;20091;-80
2021/07/02 03:48:45;;;;;;;2.30;2.13;;;13.90;99.90;;;;;;5038741;28;20060;-81
2021/07/02 03:51:12;;;;;;;2.40;1.98;;;14.00;99.90;;;;;;5038659;28;20049;-81
2021/07/02 03:53:39;;;;;;;4.80;2.35;;;14.00;99.90;;;;;;5019713;28;20148;-79
2021/07/02 03:56:07;;;;;;;3.50;3.20;;;14.00;99.90;;;;;;5017048;28;20120;-79
2021/07/02 03:58:34;;;;;;;2.92;2.70;;;14.00;99.90;;;;;;5017146;28;20136;-79
2021/07/02 04:07:49;;;;;;;6.10;2.90;;;13.90;99.90;;;;;;5012319;23;20137;-90
2021/07/02 04:10:16;;;;;;;2.65;2.40;;;13.80;99.90;;;;;;4995094;28;20133;-89
2021/07/02 04:12:42;;;;;;;3.22;3.03;;;13.80;99.90;;;;;;4994508;28;20061;-89
2021/07/02 04:15:10;;;;;;;3.33;2.80;;;13.80;99.90;;;;;;4994169;28;20050;-89
2021/07/02 04:17:40;;;;;;;3.10;2.80;;;13.90;99.90;;;;;;4993795;28;20054;-88
2021/07/02 04:20:10;;;;;;;4.15;3.45;;;13.90;99.90;;;;;;4994027;28;20139;-88
2021/07/02 04:22:40;;;;;;;4.70;3.10;;;13.90;99.90;;;;;;4994826;28;20422;-88
2021/07/02 04:25:09;;;;;;;4.30;3.92;;;13.80;99.90;;;;;;4993582;28;20046;-87
2021/07/02 04:27:37;;;;;;;4.45;3.97;;;13.80;99.90;;;;;;4993746;28;20109;-86
2021/07/02 04:30:06;;;;;;;3.72;3.42;;;13.80;99.90;;;;;;4992863;28;20483;-85
2021/07/02 04:32:33;;;;;;;4.68;3.33;;;13.90;99.90;;;;;;4994389;28;20060;-86
2021/07/02 04:34:59;;;;;;;3.30;3.00;;;13.80;99.90;;;;;;5008692;28;20057;-86
2021/07/02 04:37:26;;;;;;;3.70;3.00;;;13.80;99.90;;;;;;4999201;28;20057;-85
2021/07/02 04:39:53;;;;;;;6.05;3.40;;;13.80;99.90;;;;;;4993206;28;20050;-86
2021/07/02 04:42:19;;;;;;;3.65;3.13;;;13.80;99.90;;;;;;4993890;28;20221;-85
2021/07/02 04:44:46;;;;;;;2.78;2.58;;;13.80;99.90;;;;;;4993114;28;20068;-86
2021/07/02 04:47:13;;;;;;;3.28;2.83;;;13.90;99.90;;;;;;4994107;28;20438;-86
2021/07/02 04:49:40;;;;;;;2.65;2.38;;;13.90;99.90;;;;;;4994155;28;20052;-86
2021/07/02 04:52:07;;;;;;;2.42;2.33;;;14.00;99.90;;;;;;4993989;28;20400;-86
2021/07/02 04:54:34;;;;;;;2.47;2.20;;;14.10;99.90;;;;;;4993221;28;20133;-86
2021/07/02 04:57:01;;;;;;;2.20;2.05;;;14.10;99.90;;;;;;4993391;28;20054;-86
2021/07/02 04:59:34;;;;;;;2.35;2.15;;;14.10;99.90;;;;;;4993153;28;20069;-87
2021/07/02 05:02:03;;;;;;;3.85;2.03;;;14.20;99.90;;;;;;4993323;28;20093;-87
2021/07/02 05:04:30;;;;;;;4.13;2.05;;;14.20;99.90;;;;;;4992957;28;20050;-87
2021/07/02 05:06:56;;;;;;;3.33;1.70;;;14.20;99.90;;;;;;4992721;28;20155;-86
2021/07/02 05:09:23;;;;;;;2.10;2.00;;;14.20;99.90;;;;;;4992899;28;20512;-86
2021/07/02 05:11:50;;;;;;;1.60;1.50;;;14.10;99.90;;;;;;4992734;28;20217;-86
2021/07/02 05:14:18;;;;;;;4.05;2.05;;;14.10;99.90;;;;;;4992786;28;20062;-85
2021/07/02 05:16:45;;;;;;;5.82;2.42;;;14.00;99.90;;;;;;4992841;28;20046;-86
2021/07/02 05:19:11;;;;;;;2.90;2.60;;;14.00;99.90;;;;;;4992842;28;20085;-85
2021/07/02 05:21:38;;;;;;;2.92;2.42;;;14.00;99.90;;;;;;4992622;28;20047;-85
2021/07/02 05:24:05;;;;;;;2.60;2.40;;;14.10;99.90;;;;;;4992867;28;20513;-85
2021/07/02 05:26:32;;;;;;;3.28;2.28;;;14.10;99.90;;;;;;4992820;28;20184;-85
2021/07/02 05:28:59;;;;;;;3.30;2.50;;;14.20;99.90;;;;;;4993725;28;20066;-86
2021/07/02 05:31:25;;;;;;;3.05;2.80;;;14.20;99.90;;;;;;4992651;28;20454;-85
2021/07/02 05:33:52;;;;;;;3.25;2.90;;;14.30;99.90;;;;;;4992723;28;20541;-85
2021/07/02 05:36:19;;;;;;;3.47;2.55;;;14.30;99.90;;;;;;4992917;28;20050;-85
2021/07/02 05:38:46;;;;;;;2.53;2.33;;;14.30;99.90;;;;;;4992679;28;20134;-86
2021/07/02 05:41:13;;;;;;;3.50;2.90;;;14.30;99.90;;;;;;4994263;28;20061;-86
2021/07/02 05:43:40;;;;;;;2.92;2.50;;;14.30;99.90;;;;;;4996305;28;20046;-86
2021/07/02 05:46:07;;;;;;;2.85;2.50;;;14.30;99.90;;;;;;4997152;28;20136;-86
2021/07/02 05:48:34;;;;;;;4.28;2.95;;;14.40;99.90;;;;;;4996183;28;20512;-86
2021/07/02 05:51:01;;;;;;;3.40;2.78;;;14.40;99.90;;;;;;4996308;28;20054;-87
2021/07/02 05:53:28;;;;;;;3.63;2.33;;;14.40;99.90;;;;;;5001908;28;20058;-88
2021/07/02 05:55:54;;;;;;;2.72;2.53;;;14.40;99.90;;;;;;5012007;28;20134;-87
2021/07/02 05:58:21;;;;;;;2.67;2.47;;;14.40;99.90;;;;;;4996535;28;20073;-87
2021/07/02 06:00:48;;;;;;;4.25;2.58;;;14.40;99.90;;;;;;4996310;28;20068;-88
2021/07/02 06:03:15;;;;;;;3.22;2.60;;;14.40;99.90;;;;;;4996299;28;20137;-87
2021/07/02 06:05:41;;;;;;;2.70;2.22;;;14.50;99.90;;;;;;4996003;28;20060;-87
2021/07/02 06:08:08;;;;;;;2.78;2.47;;;14.50;99.90;;;;;;4996088;28;20162;-87
2021/07/02 06:10:35;;;;;;;2.40;2.20;;;14.50;99.90;;;;;;4996185;28;20050;-87
2021/07/02 06:13:02;;;;;;;2.50;2.40;;;14.40;99.90;;;;;;4995579;28;20056;-88
2021/07/02 06:15:29;;;;;;;2.47;2.22;;;14.40;99.90;;;;;;4995827;28;20101;-87
2021/07/02 06:17:57;;;;;;;2.38;2.10;;;14.30;99.90;;;;;;4996004;28;20057;-87
2021/07/02 06:20:26;;;;;;;2.80;2.60;;;14.40;99.90;;;;;;4995775;28;20463;-87
2021/07/02 06:22:53;;;;;;;2.55;2.35;;;14.40;99.90;;;;;;4995835;28;20133;-87
2021/07/02 06:25:20;;;;;;;2.55;2.35;;;14.50;99.90;;;;;;4995744;28;20056;-87
2021/07/02 06:27:46;;;;;;;2.60;2.40;;;14.60;99.90;;;;;;4995706;28;20406;-87
2021/07/02 06:30:17;;;;;;;2.50;2.30;;;14.60;99.90;;;;;;4995860;28;20054;-87
2021/07/02 06:32:45;;;;;;;3.47;2.58;;;14.60;99.90;;;;;;4995302;28;20056;-87
2021/07/02 06:35:13;;;;;;;4.88;2.70;;;14.50;99.90;;;;;;4995571;28;20180;-87
2021/07/02 06:37:39;;;;;;;4.88;2.40;;;14.50;99.90;;;;;;4995609;28;20133;-86
2021/07/02 06:40:08;;;;;;;3.08;2.10;;;14.50;99.90;;;;;;4995594;28;20498;-87
2021/07/02 06:42:35;;;;;;;3.13;2.03;;;14.60;99.90;;;;;;4995370;28;20509;-87
2021/07/02 06:45:03;;;;;;;2.42;2.00;;;14.60;99.90;;;;;;4995403;28;20056;-87
2021/07/02 06:47:30;;;;;;;2.20;2.00;;;14.60;99.90;;;;;;4995092;28;20053;-87
2021/07/02 06:49:57;;;;;;;2.28;2.08;;;14.60;99.90;;;;;;4995447;28;20085;-87
2021/07/02 06:52:24;;;;;;;2.72;2.53;;;14.60;99.90;;;;;;4994482;28;20419;-87
2021/07/02 06:54:50;;;;;;;2.45;2.35;;;14.60;99.90;;;;;;4995258;28;20046;-86
2021/07/02 06:57:17;;;;;;;2.95;2.50;;;14.60;99.90;;;;;;4995355;28;20069;-87
2021/07/02 06:59:44;;;;;;;2.00;1.83;;;14.60;99.90;;;;;;4994979;28;20487;-86
2021/07/02 07:02:12;;;;;;;2.20;1.98;;;14.60;99.90;;;;;;4994772;28;20125;-86
2021/07/02 07:04:39;;;;;;;2.30;2.20;;;14.60;99.90;;;;;;4994815;28;20141;-86
2021/07/02 07:07:08;;;;;;;3.70;2.20;;;14.60;99.90;;;;;;4994708;28;20061;-86
2021/07/02 07:09:37;;;;;;;2.95;2.65;;;14.60;99.90;;;;;;4994825;28;20481;-86
2021/07/02 07:12:05;;;;;;;2.53;2.30;;;14.70;99.90;;;;;;4995515;28;20081;-87
2021/07/02 07:14:32;;;;;;;3.80;1.92;;;14.70;99.90;;;;;;5011764;28;20094;-86
2021/07/02 07:17:01;;;;;;;2.47;2.10;;;14.70;99.90;;;;;;4995065;28;20046;-87
2021/07/02 07:19:29;;;;;;;1.67;1.58;;;14.70;99.90;;;;;;4995858;28;20498;-86
2021/07/02 07:21:56;;;;;;;1.88;1.50;;;14.70;99.90;;;;;;4995674;28;20133;-87
2021/07/02 07:24:23;;;;;;;1.67;1.58;;;14.70;99.90;;;;;;4995530;28;20050;-87
2021/07/02 07:26:54;;;;;;;1.30;1.30;;;14.70;99.90;;;;;;4995543;28;20062;-87
2021/07/02 07:29:22;;;;;;;2.88;1.70;;;14.90;99.90;;;;;;4994564;28;20134;-87
2021/07/02 07:31:49;;;;;;;1.50;1.13;;;14.90;99.90;;;;;;4994302;28;20057;-87
2021/07/02 07:34:25;;;;;;;1.20;1.20;;;15.00;99.90;;;;;;4994386;28;20513;-87
2021/07/02 07:36:57;;;;;;;1.10;1.10;;;15.10;99.90;;;;;;4995249;28;20050;-87
2021/07/02 07:39:23;;;;;;;1.85;0.98;;;15.20;99.90;;;;;;4994184;28;20479;-87
2021/07/02 07:41:50;;;;;;;3.40;1.10;;;15.30;99.90;;;;;;4995068;28;20057;-86
2021/07/02 07:44:17;;;;;;;1.50;1.17;;;15.30;99.90;;;;;;4995223;28;20419;-87
2021/07/02 07:46:44;;;;;;;1.38;0.82;;;15.40;99.90;;;;;;4993909;28;20072;-85
2021/07/02 07:49:11;;;;;;;1.05;0.82;;;15.50;99.90;;;;;;4993906;28;20046;-86
2021/07/02 07:51:45;;;;;;;0.93;0.93;;;15.50;99.90;;;;;;4993719;28;20086;-87
2021/07/02 07:54:11;;;;;;;1.10;0.65;;;15.60;99.90;;;;;;4994972;28;20050;-87
2021/07/02 07:56:38;;;;;;;0.52;0.47;;;15.70;99.90;;;;;;4994872;28;20434;-86
2021/07/02 07:59:05;;;;;;;1.52;0.85;;;15.70;99.90;;;;;;4993675;28;20046;-86
2021/07/02 08:01:32;;;;;;;1.45;0.88;;;15.70;99.90;;;;;;4993561;28;20106;-87
2021/07/02 08:03:59;;;;;;;4.55;1.00;;;15.70;99.90;;;;;;4994573;28;20046;-86
2021/07/02 08:06:26;;;;;;;0.52;0.52;;;15.70;99.90;;;;;;4993355;28;20085;-86
2021/07/02 08:08:53;;;;;;;1.00;0.70;;;15.60;99.90;;;;;;4993680;28;20052;-86
2021/07/02 08:11:20;;;;;;;4.55;0.80;;;15.60;99.90;;;;;;4993486;28;20050;-86
2021/07/02 08:13:47;;;;;;;0.73;0.73;;;15.60;99.90;;;;;;4993482;28;20050;-87
2021/07/02 08:16:14;;;;;;;0.68;0.68;;;15.60;99.90;;;;;;4993586;28;20050;-86
2021/07/02 08:18:40;;;;;;;1.10;0.90;;;15.80;99.90;;;;;;4993748;28;20053;-87
2021/07/02 08:21:07;;;;;;;1.00;1.00;;;15.70;99.90;;;;;;4993652;28;20252;-87
2021/07/02 08:23:34;;;;;;;2.83;0.93;;;15.60;99.90;;;;;;4993410;28;20058;-87
2021/07/02 08:26:01;;;;;;;1.20;1.15;;;15.60;99.90;;;;;;4993444;28;20104;-86
2021/07/02 08:31:13;;;;;;;2.30;1.55;;;15.60;99.90;;;;;;4995005;28;20050;-87
2021/07/02 08:33:40;;;;;;;1.98;1.73;;;15.60;99.90;;;;;;5001068;28;20080;-87
2021/07/02 08:36:06;;;;;;;2.38;1.85;;;15.70;99.90;;;;;;4997073;28;20057;-87
2021/07/02 08:38:33;;;;;;;3.22;1.70;;;15.80;99.90;;;;;;4993448;28;20056;-88
2021/07/02 08:41:02;;;;;;;1.40;1.30;;;15.90;99.90;;;;;;4993612;28;20046;-88
2021/07/02 08:43:29;;;;;;;1.40;1.30;;;15.90;99.90;;;;;;4993458;28;20069;-87
2021/07/02 08:45:57;;;;;;;1.75;1.63;;;15.90;99.90;;;;;;4993287;28;20483;-87
2021/07/02 08:48:26;;;;;;;1.38;1.23;;;15.90;99.90;;;;;;4993312;28;20057;-87
2021/07/02 08:50:53;;;;;;;3.90;1.60;;;16.00;99.90;;;;;;4993277;28;20046;-88
2021/07/02 08:53:21;;;;;;;1.38;1.10;;;16.00;99.90;;;;;;4992943;28;20516;-88
2021/07/02 08:55:48;;;;;;;2.70;1.70;;;15.90;99.90;;;;;;4993243;28;20054;-88
2021/07/02 08:58:15;;;;;;;1.90;1.60;;;16.00;99.90;;;;;;4993195;28;20061;-87
2021/07/02 09:00:43;;;;;;;3.22;1.92;;;16.00;99.90;;;;;;4993193;28;20050;-87
2021/07/02 09:03:35;;;;;;;1.65;1.55;;;15.90;99.90;;;;;;4993272;28;20505;-87
2021/07/02 09:06:08;;;;;;;2.97;1.70;;;15.90;99.90;;;;;;4993097;28;20565;-87
2021/07/02 09:08:35;;;;;;;4.78;1.70;;;15.90;99.90;;;;;;4993230;28;20061;-87
2021/07/02 09:11:22;;;;;;;2.03;1.42;;;15.90;99.90;;;;;;4993192;28;20050;-87
2021/07/02 09:13:48;;;;;;;1.88;1.55;;;15.90;99.90;;;;;;4993482;28;20137;-88
2021/07/02 09:16:25;;;;;;;1.85;1.52;;;16.00;99.90;;;;;;4994799;28;20489;-88
2021/07/02 09:18:53;;;;;;;3.83;1.67;;;15.90;99.90;;;;;;4996709;28;20081;-87
2021/07/02 09:21:24;;;;;;;2.10;1.77;;;15.90;99.90;;;;;;4996601;28;20407;-87
2021/07/02 09:23:51;;;;;;;2.35;1.55;;;16.00;99.90;;;;;;4996703;28;20046;-88
2021/07/02 09:26:40;;;;;;;1.98;1.45;;;15.90;99.90;;;;;;4995872;28;20054;-88
2021/07/02 09:29:23;;;;;;;1.45;1.42;;;15.90;99.90;;;;;;4996528;28;20141;-88
2021/07/02 09:31:58;;;;;;;1.63;1.52;;;15.90;99.90;;;;;;4996551;28;20050;-88
2021/07/02 09:34:51;;;;;;;1.73;1.63;;;16.00;99.90;;;;;;4996130;28;20132;-88
2021/07/02 09:38:15;;;;;;;1.15;1.10;;;15.90;99.90;;;;;;4996184;28;20058;-88
2021/07/02 09:40:34;;;;;;;1.33;1.30;;;15.90;99.90;;;;;;4994308;28;20068;-88
2021/07/02 09:43:10;;;;;;;2.55;1.10;;;16.00;99.90;;;;;;4995732;28;20050;-89
2021/07/02 09:45:47;;;;;;;1.88;1.50;;;16.10;99.90;;;;;;4996677;28;20054;-89
2021/07/02 09:48:15;;;;;;;1.35;1.25;;;16.10;99.90;;;;;;4996555;28;20042;-88
2021/07/02 09:50:52;;;;;;;1.27;1.27;;;16.10;99.90;;;;;;4996838;28;20050;-89
2021/07/02 09:53:24;;;;;;;2.55;1.42;;;16.00;99.90;;;;;;5005713;28;20046;-88
2021/07/02 09:55:53;;;;;;;3.55;1.42;;;16.10;99.90;;;;;;5000793;28;20137;-89
2021/07/02 09:58:23;;;;;;;1.08;1.08;;;16.10;99.90;;;;;;4995993;28;20509;-89
2021/07/02 10:00:59;;;;;;;1.50;1.40;;;16.20;99.90;;;;;;4996163;28;20056;-88
2021/07/02 10:03:35;;;;;;;4.57;1.50;;;16.20;99.90;;;;;;4995734;28;20066;-89
2021/07/02 10:06:10;;;;;;;1.42;1.33;;;16.20;99.90;;;;;;4995481;28;20523;-89
2021/07/02 10:08:38;;;;;;;3.65;1.38;;;16.30;99.90;;;;;;4995653;28;20068;-88
2021/07/02 10:11:07;;;;;;;1.20;1.20;;;16.30;99.90;;;;;;4996145;28;20066;-89
2021/07/02 10:13:40;;;;;;;1.40;1.30;;;16.30;99.90;;;;;;4995209;28;20080;-90
2021/07/02 10:16:08;;;;;;;1.25;1.23;;;16.20;99.90;;;;;;4995671;28;20043;-90
2021/07/02 10:18:56;;;;;;;1.70;1.60;;;16.10;99.90;;;;;;4995480;28;20058;-89
2021/07/02 10:21:24;;;;;;;3.72;1.52;;;16.30;99.90;;;;;;4995606;28;20129;-90
2021/07/02 10:23:55;;;;;;;2.28;1.40;;;16.30;99.90;;;;;;4995591;28;20470;-90
2021/07/02 10:26:25;;;;;;;1.20;1.20;;;16.30;99.90;;;;;;4995456;28;20046;-89
2021/07/02 10:28:52;;;;;;;4.80;1.30;;;16.40;99.90;;;;;;4994304;28;20066;-92
2021/07/02 10:31:18;;;;;;;1.92;1.40;;;16.40;99.90;;;;;;4995415;28;20456;-91
2021/07/02 10:33:52;;;;;;;1.42;1.30;;;16.40;99.90;;;;;;4994666;28;20056;-89
2021/07/02 10:36:19;;;;;;;1.73;1.63;;;16.60;99.90;;;;;;4995661;28;20491;-89
2021/07/02 10:38:49;;;;;;;1.95;1.85;;;16.70;99.90;;;;;;4995622;28;20460;-88
2021/07/02 10:41:20;;;;;;;2.10;1.80;;;17.00;99.90;;;;;;4995327;28;20077;-88
2021/07/02 10:44:06;;;;;;;3.17;1.73;;;17.20;99.90;;;;;;4995180;28;20574;-88
2021/07/02 10:46:38;;;;;;;2.15;2.05;;;17.30;99.90;;;;;;4995365;28;20050;-89
2021/07/02 10:49:13;;;;;;;1.85;1.75;;;17.30;99.90;;;;;;4995214;28;20058;-88
2021/07/02 10:51:46;;;;;;;2.65;1.50;;;17.40;99.90;;;;;;4994997;28;20142;-88
2021/07/02 10:54:16;;;;;;;2.03;1.83;;;17.60;99.90;;;;;;4994920;28;20137;-88
2021/07/02 10:56:58;;;;;;;2.45;1.85;;;17.70;99.90;;;;;;4994995;28;20053;-88
2021/07/02 10:59:37;;;;;;;2.05;1.40;;;17.80;99.90;;;;;;4994993;28;20507;-88
2021/07/02 11:04:54;;;;;;;2.08;1.70;;;17.80;99.90;;;;;;4995636;28;20495;-89
2021/07/02 11:07:22;;;;;;;1.40;1.40;;;17.60;99.90;;;;;;4994446;28;20444;-87
2021/07/02 11:09:51;;;;;;;2.13;1.88;;;17.40;99.90;;;;;;4994785;28;20065;-88
2021/07/02 11:12:27;;;;;;;2.15;1.70;;;17.20;99.90;;;;;;4998437;28;20121;-88
2021/07/02 11:14:54;;;;;;;1.60;1.42;;;17.30;99.90;;;;;;5007285;28;20141;-88
2021/07/02 11:17:31;;;;;;;1.38;1.38;;;17.30;99.90;;;;;;4995430;28;20478;-90
2021/07/02 11:20:07;;;;;;;1.98;1.88;;;17.50;99.90;;;;;;4994838;28;20418;-88
2021/07/02 11:22:36;;;;;;;2.53;1.70;;;17.50;99.90;;;;;;4994362;28;20057;-87
2021/07/02 11:25:09;;;;;;;1.88;1.73;;;17.70;99.90;;;;;;4994424;28;20050;-89
2021/07/02 11:27:53;;;;;;;1.92;1.70;;;17.70;99.90;;;;;;4994423;28;20046;-89
2021/07/02 11:30:19;;;;;;;;;;;17.60;99.90;;;;;;4994979;28;20513;-89
2021/07/02 11:32:48;;;;;;;2.10;1.80;;;17.40;99.90;;;;;;4994121;28;19926;-89
2021/07/02 11:35:19;;;;;;;1.73;1.70;;;17.30;99.90;;;;;;4993438;28;20057;-89
2021/07/02 11:37:58;;;;;;;2.25;1.70;;;17.20;99.90;;;;;;4994169;28;20502;-88
2021/07/02 11:40:27;;;;;;;2.50;1.83;;;17.10;99.90;;;;;;4994198;28;20086;-88
2021/07/02 11:43:34;;;;;;;1.83;1.70;;;17.10;99.90;;;;;;4994215;28;20495;-88
2021/07/02 11:46:15;;;;;;;1.70;1.70;;;17.00;99.90;;;;;;4995146;28;20141;-88
2021/07/02 11:48:47;;;;;;;5.47;4.85;;;17.00;99.90;;;;;;4994250;28;20150;-88
2021/07/02 11:51:19;;;;;;;3.53;3.17;;;17.00;99.90;;;;;;4994305;28;20054;-87
2021/07/02 11:54:01;;;;;;;1.70;1.70;;;17.00;99.90;;;;;;4993850;28;20054;-87
2021/07/02 11:56:37;;;;;;;2.60;1.80;;;17.00;99.90;;;;;;4993719;28;20074;-87
2021/07/02 11:59:06;;;;;;;1.88;1.77;;;17.00;99.90;;;;;;4993842;28;20137;-87
2021/07/02 12:01:38;;;;;;;1.90;1.80;;;17.00;99.90;;;;;;4993869;28;20046;-88
2021/07/02 12:04:22;;;;;;;3.53;1.92;;;16.90;99.90;;;;;;4994163;28;20057;-87
2021/07/02 12:06:51;;;;;;;1.70;1.60;;;17.20;99.90;;;;;;4993491;28;20495;-87
2021/07/02 12:09:28;;;;;;;1.73;1.60;;;17.40;99.90;;;;;;4995153;28;20078;-88
2021/07/02 12:11:58;;;;;;;7.28;1.85;;;17.60;99.90;;;;;;4994509;28;20491;-88
2021/07/02 12:14:32;;;;;;;5.18;1.70;;;17.80;99.90;;;;;;4995286;28;20392;-88
2021/07/02 12:16:59;;;;;;;;;;;17.80;99.90;;;;;;4995601;28;20129;-88
2021/07/02 12:19:28;;;;;;;5.13;1.40;;;18.00;99.90;;;;;;4993160;28;20324;-88
2021/07/02 12:22:06;;;;;;;1.65;1.55;;;18.00;99.90;;;;;;4992472;28;20054;-88
2021/07/02 12:24:35;;;;;;;1.70;1.60;;;18.10;99.90;;;;;;4992368;28;20046;-89
2021/07/02 12:27:06;;;;;;;1.60;1.50;;;18.10;99.90;;;;;;4992855;28;20486;-88
2021/07/02 12:29:33;;;;;;;2.60;1.20;;;18.20;99.90;;;;;;4992149;28;20689;-88
2021/07/02 12:32:06;;;;;;;3.10;1.40;;;18.10;99.90;;;;;;4998579;28;20038;-90
2021/07/02 12:34:40;;;;;;;1.20;1.10;;;18.10;99.90;;;;;;5008245;28;20077;-89
2021/07/02 12:37:15;;;;;;;5.45;1.00;;;18.40;99.90;;;;;;4995919;28;20133;-88
2021/07/02 12:39:48;;;;;;;0.88;0.88;;;18.70;99.90;;;;;;4993940;28;20050;-90
2021/07/02 12:42:20;;;;;;;0.73;0.73;;;19.20;99.90;;;;;;4995013;28;20479;-88
2021/07/02 12:44:49;;;;;;;1.52;0.90;;;19.70;99.90;;;;;;4994662;28;20301;-89
2021/07/02 12:47:16;;;;;;;0.65;0.65;;;20.30;99.90;;;;;;4993674;28;20050;-89
2021/07/02 12:49:53;;;;;;;0.88;0.88;;;20.60;99.90;;;;;;4993671;28;20050;-89
2021/07/02 12:55:20;;;;;;;0.60;0.60;;;21.10;99.90;;;;;;4994410;28;20476;-88
2021/07/02 12:57:50;;;;;;;0.57;0.57;;;21.20;99.90;;;;;;4993750;28;20050;-89
2021/07/02 13:00:20;;;;;;;0.50;0.50;;;21.70;99.90;;;;;;4993798;28;20054;-89
2021/07/02 13:02:56;;;;;;;1.05;0.90;;;22.10;99.90;;;;;;4993807;28;20046;-89
2021/07/02 13:05:23;;;;;;;0.60;0.60;;;22.40;99.90;;;;;;4993747;28;20054;-91
2021/07/02 13:07:54;;;;;;;1.45;0.55;;;22.20;99.90;;;;;;4993387;28;20137;-89
2021/07/02 13:10:26;;;;;;;1.13;0.57;;;22.10;99.90;;;;;;4993808;28;20050;-90
2021/07/02 13:13:16;;;;;;;0.83;0.60;;;22.20;99.90;;;;;;4993581;28;20069;-89